Time;durP1;ratioP1;P1;durP2;ratioP2;P2;SDS_P1;SDS_P2;PMS_P1;PMS_P2;Temp;Humidity;BMP_temperature;BMP_pressure;BME280_temperature;BME280_humidity;BME280_pressure;Samples;Min_cycle;Max_cycle;Signal;HPM_P1;HPM_P2
2022/03/22 08:33:20;;;;;;;19.98;10.43;;;6.80;99.90;;;;;;5056190;22;19959;-80
2022/03/22 08:35:50;;;;;;;18.88;9.52;;;7.00;99.90;;;;;;5054531;28;20033;-80
2022/03/22 08:38:24;;;;;;;21.15;10.15;;;7.10;99.90;;;;;;5035811;28;20083;-70
2022/03/22 08:40:53;;;;;;;21.33;10.38;;;7.30;99.90;;;;;;5053452;28;20092;-72
2022/03/22 08:43:21;;;;;;;18.75;10.38;;;7.40;99.90;;;;;;5053948;28;20104;-72
2022/03/22 08:45:48;;;;;;;21.52;10.73;;;7.60;99.90;;;;;;5053623;28;20022;-72
2022/03/22 08:48:15;;;;;;;18.67;9.63;;;7.70;99.90;;;;;;5053540;28;20336;-72
2022/03/22 08:50:48;;;;;;;20.90;10.48;;;7.80;99.90;;;;;;5036551;28;20021;-72
2022/03/22 08:53:17;;;;;;;18.25;9.20;;;8.00;98.90;;;;;;5036469;28;20036;-72
2022/03/22 08:55:49;;;;;;;18.70;10.05;;;8.10;97.90;;;;;;5054560;28;20021;-72
2022/03/22 08:58:17;;;;;;;18.40;10.20;;;8.20;97.30;;;;;;5054596;28;20017;-72
2022/03/22 09:00:48;;;;;;;15.88;8.65;;;8.40;96.60;;;;;;5054054;28;20021;-72
2022/03/22 09:03:19;;;;;;;19.67;10.50;;;8.50;96.10;;;;;;5053824;28;20021;-72
2022/03/22 09:08:34;;;;;;;18.88;9.98;;;8.60;95.90;;;;;;5053911;28;20024;-71
2022/03/22 09:11:01;;;;;;;23.38;11.48;;;8.70;95.90;;;;;;5036151;28;20340;-71
2022/03/22 09:13:28;;;;;;;20.77;10.93;;;8.90;96.50;;;;;;5036044;28;20121;-72
2022/03/22 09:15:57;;;;;;;21.23;11.27;;;9.00;97.40;;;;;;5053794;28;20075;-71
2022/03/22 09:18:26;;;;;;;25.13;11.48;;;9.10;97.40;;;;;;5035895;28;20040;-72
2022/03/22 09:21:00;;;;;;;23.13;10.73;;;9.20;97.40;;;;;;5035106;28;20083;-71
2022/03/22 09:23:28;;;;;;;20.42;11.05;;;9.30;97.30;;;;;;5053564;28;20021;-71
2022/03/22 09:25:56;;;;;;;19.77;10.75;;;9.30;96.10;;;;;;5052629;28;20449;-71
2022/03/22 09:28:24;;;;;;;21.52;11.32;;;9.40;95.30;;;;;;5039468;28;20030;-72
2022/03/22 09:30:51;;;;;;;20.25;10.68;;;9.50;94.80;;;;;;5039308;28;20071;-72
2022/03/22 09:33:18;;;;;;;21.92;10.35;;;9.60;94.50;;;;;;5018890;28;20137;-72
2022/03/22 09:35:48;;;;;;;23.92;10.60;;;9.70;93.00;;;;;;5020282;28;20034;-72
2022/03/22 09:38:15;;;;;;;19.50;10.95;;;9.80;92.20;;;;;;5019945;28;20109;-72
2022/03/22 09:40:42;;;;;;;19.02;10.00;;;10.00;91.40;;;;;;5020272;28;20398;-72
2022/03/22 09:43:11;;;;;;;18.30;10.18;;;10.10;91.00;;;;;;5019047;28;20049;-72
2022/03/22 09:45:40;;;;;;;18.92;10.70;;;10.10;90.70;;;;;;5020564;28;20022;-72
2022/03/22 09:48:09;;;;;;;17.38;10.35;;;10.20;90.30;;;;;;5020028;28;20049;-71
2022/03/22 09:53:23;;;;;;;17.13;10.18;;;10.50;87.80;;;;;;5020238;28;20033;-73
2022/03/22 09:55:51;;;;;;;19.67;10.55;;;10.60;86.90;;;;;;5020575;28;20030;-70
2022/03/22 09:58:18;;;;;;;26.38;11.75;;;10.70;86.90;;;;;;5019878;28;20029;-72
2022/03/22 10:00:47;;;;;;;18.55;11.68;;;10.80;88.70;;;;;;5019197;28;20414;-72
2022/03/22 10:03:22;;;;;;;18.05;9.70;;;10.80;88.90;;;;;;5018775;28;20147;-72
2022/03/22 10:06:03;;;;;;;19.77;10.52;;;10.90;86.10;;;;;;5019010;28;20018;-72
2022/03/22 10:08:34;;;;;;;21.67;9.10;;;11.00;83.00;;;;;;5018795;28;20022;-72
2022/03/22 10:11:03;;;;;;;22.23;11.02;;;11.10;83.10;;;;;;5018772;28;20045;-72
2022/03/22 10:13:33;;;;;;;19.20;10.45;;;11.20;84.80;;;;;;5019239;28;20022;-72
2022/03/22 10:16:04;;;;;;;20.55;11.50;;;11.20;86.80;;;;;;5018801;28;20021;-72
2022/03/22 10:18:35;;;;;;;16.13;9.77;;;11.40;87.80;;;;;;5019419;28;20029;-71
2022/03/22 10:21:04;;;;;;;14.05;7.93;;;11.40;85.90;;;;;;5019371;28;20029;-72
2022/03/22 10:23:33;;;;;;;15.25;8.93;;;11.50;80.40;;;;;;5018344;28;20083;-71
2022/03/22 10:26:09;;;;;;;16.45;8.52;;;11.60;74.10;;;;;;5019545;28;20022;-71
2022/03/22 10:28:37;;;;;;;15.95;8.85;;;11.80;71.10;;;;;;5019329;28;20026;-71
2022/03/22 10:31:05;;;;;;;14.70;8.73;;;11.90;69.90;;;;;;5019268;28;20034;-72
2022/03/22 10:33:32;;;;;;;16.75;8.55;;;12.10;67.70;;;;;;5038914;28;20061;-71
2022/03/22 10:36:13;;;;;;;15.27;9.10;;;12.30;65.90;;;;;;5039699;28;20026;-71
2022/03/22 10:38:53;;;;;;;17.45;9.65;;;12.60;63.70;;;;;;5037965;28;20462;-71
2022/03/22 10:41:32;;;;;;;14.45;8.80;;;12.80;63.80;;;;;;5038854;28;20043;-71
2022/03/22 10:44:05;;;;;;;18.77;9.52;;;13.00;63.50;;;;;;5038456;28;20017;-70
2022/03/22 10:46:34;;;;;;;14.27;8.73;;;13.10;62.10;;;;;;5037799;28;20021;-69
2022/03/22 10:49:10;;;;;;;22.25;9.65;;;13.30;63.20;;;;;;5037690;28;20100;-68
2022/03/22 10:51:49;;;;;;;17.35;9.38;;;13.40;62.60;;;;;;5038094;28;20028;-67
2022/03/22 10:54:19;;;;;;;16.38;10.20;;;13.50;63.50;;;;;;5037612;28;20035;-67
2022/03/22 10:56:49;;;;;;;17.60;9.82;;;13.50;62.30;;;;;;5037666;28;20042;-69
2022/03/22 10:59:21;;;;;;;20.20;10.65;;;13.50;62.60;;;;;;5020910;28;20108;-67
2022/03/22 11:01:49;;;;;;;18.73;10.30;;;13.50;61.70;;;;;;5038401;28;20060;-67
2022/03/22 11:04:19;;;;;;;21.02;10.52;;;13.40;61.60;;;;;;5038343;28;20413;-67
2022/03/22 11:06:48;;;;;;;19.60;9.88;;;13.40;61.80;;;;;;5021939;28;20033;-68
2022/03/22 11:09:24;;;;;;;23.50;11.73;;;13.40;61.50;;;;;;5038310;28;20032;-69
2022/03/22 11:11:52;;;;;;;20.90;11.20;;;13.40;62.60;;;;;;5038435;28;20017;-70
2022/03/22 11:14:19;;;;;;;19.88;10.65;;;13.40;62.80;;;;;;5020644;28;20115;-69
2022/03/22 11:16:48;;;;;;;21.90;10.27;;;13.50;62.30;;;;;;5038573;28;20029;-69
2022/03/22 11:19:17;;;;;;;18.50;10.23;;;13.40;61.80;;;;;;5038136;28;20021;-67
2022/03/22 11:21:48;;;;;;;21.23;11.98;;;13.50;61.60;;;;;;5020766;28;20486;-67
2022/03/22 11:24:28;;;;;;;19.70;11.13;;;13.50;62.00;;;;;;5038606;28;20023;-67
2022/03/22 11:26:56;;;;;;;23.45;10.70;;;13.50;63.20;;;;;;5038260;28;20409;-68
2022/03/22 11:29:25;;;;;;;17.02;10.30;;;13.60;63.00;;;;;;5019514;28;20029;-69
2022/03/22 11:34:40;;;;;;;24.70;13.57;;;13.70;62.60;;;;;;5037405;28;20080;-69
2022/03/22 11:37:07;;;;;;;25.00;10.73;;;13.80;62.40;;;;;;5037459;28;20032;-69
2022/03/22 11:42:25;;;;;;;25.10;12.50;;;13.90;61.70;;;;;;5037834;28;20076;-69
2022/03/22 11:45:00;;;;;;;22.48;12.85;;;14.00;61.70;;;;;;5037789;28;20035;-69
2022/03/22 11:47:49;;;;;;;21.85;10.57;;;14.10;61.10;;;;;;5037730;28;20049;-69
2022/03/22 11:50:19;;;;;;;18.52;9.90;;;14.20;60.80;;;;;;5037606;28;20045;-69
2022/03/22 11:52:51;;;;;;;15.02;8.93;;;14.30;59.50;;;;;;5037633;28;20025;-69
2022/03/22 11:55:25;;;;;;;16.20;9.45;;;14.30;58.50;;;;;;5038041;28;20028;-69
2022/03/22 11:58:09;;;;;;;20.80;10.05;;;14.30;57.90;;;;;;5037440;28;20025;-68
2022/03/22 12:00:51;;;;;;;18.08;9.85;;;14.40;58.60;;;;;;5037852;28;20075;-69
2022/03/22 12:03:25;;;;;;;16.75;9.43;;;14.40;57.40;;;;;;5037089;28;20025;-69
2022/03/22 12:05:53;;;;;;;14.52;8.35;;;14.50;56.50;;;;;;5037336;28;20107;-69
2022/03/22 12:08:21;;;;;;;13.85;6.22;;;14.60;55.30;;;;;;5037361;28;20026;-69
2022/03/22 12:10:50;;;;;;;10.27;5.88;;;14.70;52.40;;;;;;5037176;28;20372;-69
2022/03/22 12:13:19;;;;;;;15.80;5.95;;;14.90;49.40;;;;;;5037056;28;20022;-69
2022/03/22 12:15:50;;;;;;;12.93;6.78;;;15.00;48.60;;;;;;5036379;28;20033;-70
2022/03/22 12:18:17;;;;;;;14.35;6.70;;;15.20;48.20;;;;;;5036355;28;20045;-69
2022/03/22 12:20:44;;;;;;;19.05;7.03;;;15.20;48.20;;;;;;5036929;28;20018;-70
2022/03/22 12:23:12;;;;;;;14.32;7.10;;;15.30;47.90;;;;;;5037439;28;20046;-69
2022/03/22 12:25:40;;;;;;;14.60;7.10;;;15.30;48.00;;;;;;5037185;28;20029;-69
2022/03/22 12:28:09;;;;;;;12.15;6.25;;;15.40;47.80;;;;;;5037152;28;20022;-69
2022/03/22 12:30:42;;;;;;;13.23;5.75;;;15.40;47.20;;;;;;5037306;28;20029;-69
2022/03/22 12:33:14;;;;;;;14.55;5.65;;;15.50;46.10;;;;;;5036890;28;20045;-69
2022/03/22 12:35:47;;;;;;;12.88;6.63;;;15.60;46.20;;;;;;5037271;28;20046;-69
2022/03/22 12:38:16;;;;;;;13.25;6.00;;;15.60;46.10;;;;;;5037182;28;20036;-69
2022/03/22 12:40:45;;;;;;;15.63;6.72;;;15.70;45.30;;;;;;5019911;28;20037;-69
2022/03/22 12:43:16;;;;;;;16.08;6.13;;;15.80;46.00;;;;;;5019586;28;20321;-69
2022/03/22 12:45:48;;;;;;;16.27;6.60;;;15.80;46.70;;;;;;5037504;28;20021;-69
2022/03/22 12:48:20;;;;;;;10.75;6.00;;;15.90;46.70;;;;;;5036773;28;20348;-69
2022/03/22 12:50:49;;;;;;;11.80;6.43;;;16.00;46.10;;;;;;5037581;28;20028;-69
2022/03/22 12:53:17;;;;;;;21.25;7.25;;;16.00;46.10;;;;;;5036562;28;20032;-69
2022/03/22 12:55:45;;;;;;;13.45;7.28;;;16.10;46.50;;;;;;5036135;28;20018;-69
2022/03/22 12:58:13;;;;;;;17.27;7.25;;;16.20;46.20;;;;;;5036054;28;20025;-69
2022/03/22 13:00:41;;;;;;;14.00;7.40;;;16.20;46.20;;;;;;5036060;28;20040;-69
2022/03/22 13:03:17;;;;;;;12.32;6.80;;;16.30;46.20;;;;;;5038881;28;20037;-69
2022/03/22 13:05:47;;;;;;;11.77;6.43;;;16.30;45.70;;;;;;5022576;28;20065;-69
2022/03/22 13:08:19;;;;;;;10.50;7.32;;;16.40;45.60;;;;;;5023062;28;20026;-70
2022/03/22 13:16:27;;;;;;;14.27;6.53;;;16.60;46.50;;;;;;5040716;28;20111;-69
2022/03/22 13:18:58;;;;;;;;;;;16.70;45.50;;;;;;5040879;28;20378;-69
2022/03/22 13:21:27;;;;;;;10.18;6.13;;;16.80;45.20;;;;;;5040843;28;20342;-69
2022/03/22 13:24:10;;;;;;;15.15;6.28;;;16.80;45.40;;;;;;5022708;28;20049;-69
2022/03/22 13:26:51;;;;;;;11.45;5.82;;;16.90;44.50;;;;;;5041037;28;20026;-69
2022/03/22 13:29:22;;;;;;;11.02;5.82;;;17.00;44.10;;;;;;5040708;28;20104;-69
2022/03/22 13:31:58;;;;;;;13.90;6.43;;;17.10;43.40;;;;;;5039991;28;20069;-70
2022/03/22 13:34:27;;;;;;;10.05;6.20;;;17.20;42.80;;;;;;5040105;28;20018;-74
2022/03/22 13:37:17;;;;;;;10.43;5.63;;;17.30;42.00;;;;;;5022142;28;20037;-70
2022/03/22 13:39:50;;;;;;;8.25;5.30;;;17.50;42.30;;;;;;5039077;28;20018;-70
2022/03/22 13:42:20;;;;;;;11.05;6.32;;;17.70;42.20;;;;;;5039091;28;20029;-70
2022/03/22 13:44:59;;;;;;;13.27;6.95;;;17.90;40.80;;;;;;5039049;28;20040;-70
2022/03/22 13:47:29;;;;;;;12.73;6.03;;;18.30;40.70;;;;;;5021976;28;20368;-70
2022/03/22 13:50:11;;;;;;;11.40;6.07;;;18.70;40.50;;;;;;5040136;28;20085;-70
2022/03/22 13:52:38;;;;;;;11.15;5.82;;;19.50;39.60;;;;;;5039744;28;20025;-70
2022/03/22 13:55:21;;;;;;;10.95;6.43;;;20.40;38.70;;;;;;5039694;28;20025;-70
2022/03/22 13:57:53;;;;;;;12.82;6.60;;;21.40;37.80;;;;;;5039657;28;20025;-70
2022/03/22 14:00:21;;;;;;;10.70;6.05;;;22.10;36.60;;;;;;5039717;28;20325;-70
2022/03/22 14:02:53;;;;;;;17.20;6.68;;;22.80;35.90;;;;;;5021969;28;20025;-70
2022/03/22 14:05:20;;;;;;;12.80;7.03;;;23.40;35.10;;;;;;5039571;28;20025;-70
2022/03/22 14:07:54;;;;;;;10.63;6.72;;;24.00;34.50;;;;;;5039519;28;20018;-70
2022/03/22 14:10:22;;;;;;;14.18;6.32;;;24.60;33.40;;;;;;5022205;28;20021;-70
2022/03/22 14:12:50;;;;;;;12.07;6.55;;;25.00;33.00;;;;;;5039887;28;20013;-70
2022/03/22 14:15:17;;;;;;;10.82;6.00;;;25.30;32.40;;;;;;5039337;28;20443;-70
2022/03/22 14:17:45;;;;;;;13.07;6.68;;;25.50;32.50;;;;;;5039335;28;20026;-70
2022/03/22 14:20:14;;;;;;;11.25;6.32;;;25.70;31.60;;;;;;5039295;28;20026;-70
2022/03/22 14:22:41;;;;;;;12.80;6.45;;;26.00;31.70;;;;;;5020818;28;20064;-70
2022/03/22 14:25:12;;;;;;;11.00;6.15;;;26.30;31.30;;;;;;5038735;28;20022;-71
2022/03/22 14:27:40;;;;;;;15.55;6.82;;;26.50;31.00;;;;;;5038227;28;20039;-70
2022/03/22 14:30:17;;;;;;;13.82;7.05;;;26.60;30.30;;;;;;5020701;28;20432;-70
2022/03/22 14:32:50;;;;;;;13.25;6.68;;;26.70;30.40;;;;;;5017134;28;20056;-71
2022/03/22 14:38:06;;;;;;;11.82;6.72;;;26.80;30.90;;;;;;5019435;28;20032;-70
2022/03/22 14:40:33;;;;;;;10.13;6.78;;;27.00;31.00;;;;;;5019308;28;20330;-69
2022/03/22 14:43:04;;;;;;;12.13;6.80;;;27.00;30.00;;;;;;5019306;28;20076;-70
2022/03/22 14:45:32;;;;;;;13.05;7.15;;;27.10;31.20;;;;;;5018801;28;20029;-71
2022/03/22 14:48:00;;;;;;;12.63;7.22;;;27.30;30.70;;;;;;5019285;28;20105;-71
2022/03/22 14:50:27;;;;;;;11.30;8.02;;;27.50;30.50;;;;;;5019114;28;20132;-71
2022/03/22 14:55:41;;;;;;;10.50;6.72;;;27.90;30.00;;;;;;5018416;28;20032;-71
2022/03/22 15:00:54;;;;;;;;;;;28.10;30.10;;;;;;5018334;28;20041;-71
2022/03/22 15:03:27;;;;;;;8.73;6.45;;;28.20;29.80;;;;;;5017725;28;19912;-71
2022/03/22 15:06:03;;;;;;;11.77;7.53;;;28.30;30.00;;;;;;5017774;28;20438;-71
2022/03/22 15:08:31;;;;;;;15.07;6.82;;;28.60;30.00;;;;;;5017569;28;20029;-71
2022/03/22 15:10:59;;;;;;;10.55;7.00;;;28.80;29.50;;;;;;5017676;28;20029;-71
2022/03/22 15:13:27;;;;;;;9.20;6.85;;;28.90;29.20;;;;;;5017481;28;20029;-71
2022/03/22 15:15:55;;;;;;;10.45;7.05;;;28.90;28.90;;;;;;5017795;28;20437;-70
2022/03/22 15:18:23;;;;;;;9.68;6.97;;;28.90;29.10;;;;;;5016484;28;20337;-71
2022/03/22 15:20:52;;;;;;;11.27;7.38;;;28.80;29.40;;;;;;5017519;28;20025;-71
2022/03/22 15:23:19;;;;;;;10.38;7.22;;;28.80;29.40;;;;;;5017879;28;20022;-71
2022/03/22 15:25:48;;;;;;;12.55;7.22;;;28.90;29.10;;;;;;5017738;28;20029;-72
2022/03/22 15:28:28;;;;;;;11.52;6.63;;;29.00;29.10;;;;;;5018783;28;20037;-72
2022/03/22 15:30:55;;;;;;;10.55;6.78;;;29.10;28.50;;;;;;5017218;28;20434;-72
2022/03/22 15:33:23;;;;;;;20.48;7.85;;;29.00;28.50;;;;;;5036272;28;20057;-72
2022/03/22 15:35:50;;;;;;;8.95;6.80;;;28.90;29.00;;;;;;5037695;28;20104;-72
2022/03/22 15:38:18;;;;;;;11.77;6.72;;;28.80;28.50;;;;;;5019474;28;20025;-71
2022/03/22 15:40:45;;;;;;;12.68;7.70;;;28.80;28.60;;;;;;5036990;28;20025;-71
2022/03/22 15:43:13;;;;;;;11.20;7.32;;;28.90;28.90;;;;;;5036868;28;20104;-72
2022/03/22 15:45:41;;;;;;;11.23;7.88;;;29.00;28.70;;;;;;5037474;28;20480;-71
2022/03/22 15:48:10;;;;;;;15.75;7.45;;;29.00;28.80;;;;;;5037298;28;20030;-72
2022/03/22 15:50:37;;;;;;;12.70;7.38;;;29.00;28.40;;;;;;5037318;28;20020;-72
2022/03/22 15:53:07;;;;;;;10.48;6.93;;;28.90;28.30;;;;;;5019562;28;20041;-72
2022/03/22 15:55:36;;;;;;;9.27;7.30;;;28.70;28.50;;;;;;5036898;28;20079;-72
2022/03/22 15:58:04;;;;;;;14.27;6.53;;;28.60;28.90;;;;;;5037173;28;20029;-72
2022/03/22 16:00:31;;;;;;;12.32;7.78;;;28.60;29.10;;;;;;5037229;28;20026;-71
2022/03/22 16:02:59;;;;;;;12.27;7.03;;;28.40;29.20;;;;;;5036851;28;20407;-71
2022/03/22 16:05:26;;;;;;;11.55;8.07;;;28.30;29.00;;;;;;5036468;28;20040;-73
2022/03/22 16:07:54;;;;;;;11.95;8.75;;;27.90;29.30;;;;;;5036422;28;20017;-73
2022/03/22 16:10:23;;;;;;;13.48;8.60;;;27.50;29.70;;;;;;5020576;28;20017;-73
2022/03/22 16:12:51;;;;;;;17.38;8.15;;;27.00;30.10;;;;;;5037876;28;20022;-76
2022/03/22 16:15:19;;;;;;;9.93;7.00;;;26.80;30.10;;;;;;5021106;28;20305;-73
2022/03/22 16:17:46;;;;;;;13.18;8.00;;;26.70;30.50;;;;;;5019481;28;20065;-77
2022/03/22 16:20:16;;;;;;;14.65;8.88;;;26.80;30.40;;;;;;5036787;28;20056;-74
2022/03/22 16:22:44;;;;;;;15.57;10.63;;;26.80;30.40;;;;;;5036386;28;20100;-76
2022/03/22 16:25:13;;;;;;;13.30;9.25;;;26.70;30.60;;;;;;5036295;28;20053;-72
2022/03/22 16:27:46;;;;;;;18.52;10.15;;;26.30;30.60;;;;;;5036331;28;20413;-72
2022/03/22 16:30:16;;;;;;;20.65;11.93;;;25.80;30.60;;;;;;5018994;28;20048;-72
2022/03/22 16:38:17;;;;;;;26.40;14.20;;;23.80;32.00;;;;;;5039929;28;20455;-72
2022/03/22 16:40:46;;;;;;;34.55;18.75;;;23.20;32.80;;;;;;5040467;28;20476;-72
2022/03/22 16:43:16;;;;;;;33.83;20.33;;;22.90;33.70;;;;;;5040495;28;20076;-72
2022/03/22 16:45:45;;;;;;;22.38;14.77;;;22.60;34.40;;;;;;5022513;28;20029;-78
2022/03/22 16:48:14;;;;;;;24.65;11.25;;;22.30;35.00;;;;;;5022495;28;20021;-78
2022/03/22 16:50:50;;;;;;;22.75;15.65;;;22.00;35.60;;;;;;5039563;28;20035;-78
2022/03/22 16:53:21;;;;;;;20.08;12.65;;;21.70;35.90;;;;;;5040772;28;20025;-73
2022/03/22 16:55:56;;;;;;;22.65;16.27;;;21.40;36.40;;;;;;5040920;28;20029;-73
2022/03/22 16:58:24;;;;;;;23.70;13.60;;;21.20;37.00;;;;;;5040836;28;20029;-73
2022/03/22 17:00:52;;;;;;;24.52;12.50;;;21.10;38.10;;;;;;5041500;28;20353;-73
2022/03/22 17:03:19;;;;;;;35.88;17.10;;;20.80;38.10;;;;;;5022391;28;20376;-78
2022/03/22 17:05:47;;;;;;;30.75;13.80;;;20.30;38.90;;;;;;5039913;28;20295;-76
2022/03/22 17:08:18;;;;;;;24.90;13.75;;;19.70;39.50;;;;;;5039737;28;20028;-80
2022/03/22 17:10:49;;;;;;;26.60;13.02;;;19.10;40.30;;;;;;5040150;28;20101;-79
2022/03/22 17:13:19;;;;;;;21.63;12.40;;;18.50;41.10;;;;;;5039636;28;20060;-73
2022/03/22 17:15:50;;;;;;;19.17;11.90;;;18.00;41.80;;;;;;5039600;28;20040;-76
2022/03/22 17:18:18;;;;;;;24.27;12.82;;;17.60;42.50;;;;;;5039477;28;20018;-78
2022/03/22 17:20:46;;;;;;;21.77;11.40;;;17.10;43.30;;;;;;5039773;28;20048;-79
2022/03/22 17:23:13;;;;;;;14.88;10.13;;;16.80;43.80;;;;;;5039427;28;20017;-79
2022/03/22 17:25:43;;;;;;;16.50;9.75;;;16.40;44.30;;;;;;5039591;28;20402;-79
2022/03/22 17:28:10;;;;;;;18.63;10.27;;;16.00;44.70;;;;;;5039632;28;20043;-79
2022/03/22 17:30:37;;;;;;;17.98;9.75;;;15.70;45.20;;;;;;5039562;28;20017;-79
2022/03/22 17:33:05;;;;;;;22.58;10.40;;;15.40;45.70;;;;;;5038918;28;20102;-79
2022/03/22 17:35:32;;;;;;;21.35;9.82;;;15.20;46.20;;;;;;5040570;28;20022;-79
2022/03/22 17:38:00;;;;;;;22.95;9.57;;;14.90;46.60;;;;;;5040332;28;20080;-79
2022/03/22 17:40:28;;;;;;;21.85;10.05;;;14.60;47.10;;;;;;5040080;28;20021;-79
2022/03/22 17:42:55;;;;;;;16.98;10.25;;;14.40;47.50;;;;;;5040392;28;20033;-79
2022/03/22 17:45:23;;;;;;;14.02;7.82;;;14.20;47.90;;;;;;5021589;28;20025;-79
2022/03/22 17:47:50;;;;;;;16.83;8.77;;;13.90;48.10;;;;;;5020920;28;20440;-79
2022/03/22 17:50:18;;;;;;;17.52;8.65;;;13.70;48.40;;;;;;5021444;28;20409;-79
2022/03/22 17:52:47;;;;;;;22.77;9.90;;;13.50;48.60;;;;;;5038964;28;20482;-79
2022/03/22 17:55:15;;;;;;;22.27;10.00;;;13.40;49.00;;;;;;5039093;28;20333;-79
2022/03/22 17:57:42;;;;;;;18.00;9.73;;;13.20;49.30;;;;;;5021300;28;20072;-79
2022/03/22 18:00:12;;;;;;;20.10;9.50;;;13.00;49.80;;;;;;5039037;28;20017;-79
2022/03/22 18:02:45;;;;;;;15.63;9.05;;;12.80;50.20;;;;;;5038827;28;20033;-79
2022/03/22 18:05:18;;;;;;;18.63;9.43;;;12.50;52.40;;;;;;5038801;28;20017;-79
2022/03/22 18:07:47;;;;;;;16.65;8.10;;;12.20;54.60;;;;;;5038650;28;20053;-79
2022/03/22 18:10:15;;;;;;;20.38;8.30;;;11.80;56.30;;;;;;5038647;28;20373;-79
2022/03/22 18:12:44;;;;;;;21.33;8.68;;;11.50;56.80;;;;;;5021032;28;20021;-79
2022/03/22 18:15:13;;;;;;;21.48;8.93;;;11.20;57.70;;;;;;5038641;28;20021;-79
2022/03/22 18:17:42;;;;;;;20.88;9.63;;;11.00;58.20;;;;;;5039305;28;20025;-78
2022/03/22 18:20:11;;;;;;;16.42;8.90;;;10.70;58.90;;;;;;5021819;28;20336;-78
2022/03/22 18:22:39;;;;;;;15.40;8.45;;;10.50;59.50;;;;;;5039558;28;20409;-79
2022/03/22 18:25:13;;;;;;;17.40;8.07;;;10.30;60.90;;;;;;5039767;28;20420;-78
2022/03/22 18:27:41;;;;;;;19.55;8.68;;;10.00;61.50;;;;;;5038571;28;20076;-79
2022/03/22 18:30:09;;;;;;;16.85;9.05;;;9.80;62.40;;;;;;5020579;28;20056;-79
2022/03/22 18:32:38;;;;;;;20.70;8.70;;;9.70;62.70;;;;;;5037943;28;20356;-72
2022/03/22 18:35:06;;;;;;;19.85;8.15;;;9.50;63.70;;;;;;5037963;28;20109;-79
2022/03/22 18:37:33;;;;;;;29.08;9.60;;;9.40;64.60;;;;;;5038320;28;20064;-79
2022/03/22 18:40:02;;;;;;;24.85;10.55;;;9.30;64.90;;;;;;5038014;28;20333;-79
2022/03/22 18:42:29;;;;;;;41.28;16.88;;;9.10;65.60;;;;;;5020387;28;20026;-80
2022/03/22 18:44:57;;;;;;;50.70;20.13;;;9.10;66.20;;;;;;5037921;28;20417;-80
2022/03/22 18:47:25;;;;;;;29.75;12.32;;;9.00;66.50;;;;;;5037798;28;20025;-79
2022/03/22 18:49:52;;;;;;;41.63;13.35;;;8.90;66.70;;;;;;5037980;28;20021;-80
2022/03/22 18:52:19;;;;;;;25.85;9.07;;;8.80;66.80;;;;;;5038040;28;20040;-79
2022/03/22 18:54:46;;;;;;;17.73;8.23;;;8.70;67.80;;;;;;5038024;28;20021;-79
2022/03/22 18:57:14;;;;;;;19.83;8.65;;;8.60;68.50;;;;;;5037907;28;20460;-79
2022/03/22 18:59:42;;;;;;;18.35;8.85;;;8.40;69.60;;;;;;5019900;28;20417;-79
2022/03/22 19:02:10;;;;;;;22.30;8.88;;;8.30;70.90;;;;;;5038434;28;20072;-79
2022/03/22 19:04:37;;;;;;;29.50;9.32;;;8.10;72.30;;;;;;5038532;28;20021;-79
2022/03/22 19:07:07;;;;;;;31.65;10.43;;;8.00;74.70;;;;;;5038569;28;20025;-79
2022/03/22 19:09:34;;;;;;;17.77;8.80;;;7.80;77.00;;;;;;5020327;28;20025;-79
2022/03/22 19:12:02;;;;;;;20.95;9.77;;;7.80;78.80;;;;;;5037900;28;20017;-79
2022/03/22 19:14:29;;;;;;;25.70;9.68;;;7.70;80.40;;;;;;5037659;28;20419;-79
2022/03/22 19:19:45;;;;;;;22.48;9.20;;;7.50;83.90;;;;;;5037760;28;20032;-79
2022/03/22 19:22:13;;;;;;;22.38;9.18;;;7.30;85.80;;;;;;5037150;28;20064;-79
2022/03/22 19:24:40;;;;;;;23.88;9.15;;;7.10;88.20;;;;;;5019592;28;20026;-79
2022/03/22 19:27:08;;;;;;;19.48;9.38;;;7.00;90.20;;;;;;5037078;28;20103;-79
2022/03/22 19:29:35;;;;;;;24.15;10.00;;;6.90;90.90;;;;;;5037841;28;20087;-79
2022/03/22 19:34:52;;;;;;;22.93;9.33;;;6.70;93.10;;;;;;5037351;28;20374;-79
2022/03/22 19:37:21;;;;;;;21.25;10.48;;;6.60;94.40;;;;;;5019299;28;20029;-79
2022/03/22 19:39:49;;;;;;;19.48;10.75;;;6.50;95.30;;;;;;5037387;28;20021;-79
2022/03/22 19:42:17;;;;;;;24.27;11.20;;;6.40;95.80;;;;;;5037162;28;20374;-79
2022/03/22 19:44:45;;;;;;;24.55;11.00;;;6.40;96.90;;;;;;5037781;28;20413;-79
2022/03/22 19:47:13;;;;;;;25.35;9.70;;;6.30;97.70;;;;;;5037814;28;20306;-79
2022/03/22 19:49:51;;;;;;;27.95;10.90;;;6.20;98.80;;;;;;5020152;28;20025;-79
2022/03/22 19:52:20;;;;;;;40.20;11.20;;;6.10;99.20;;;;;;5037038;28;20104;-79
2022/03/22 19:54:49;;;;;;;22.00;10.48;;;6.00;99.80;;;;;;5019150;28;20021;-79
2022/03/22 19:57:16;;;;;;;25.20;10.05;;;5.90;99.90;;;;;;5019075;28;20364;-79
2022/03/22 19:59:44;;;;;;;22.63;11.43;;;5.80;99.90;;;;;;5019077;28;20090;-79
2022/03/22 20:02:12;;;;;;;32.47;10.57;;;5.70;99.90;;;;;;5036578;28;20021;-79
2022/03/22 20:04:40;;;;;;;27.92;10.10;;;5.60;99.90;;;;;;5019229;28;20075;-79
2022/03/22 20:07:07;;;;;;;21.92;9.65;;;5.50;99.90;;;;;;5018817;28;20076;-79
2022/03/22 20:09:35;;;;;;;24.88;10.27;;;5.30;99.90;;;;;;5019038;28;20365;-79
2022/03/22 20:12:02;;;;;;;23.10;9.82;;;5.20;99.90;;;;;;5036320;28;20048;-79
2022/03/22 20:14:31;;;;;;;21.85;10.13;;;5.10;99.90;;;;;;5019141;28;20021;-79
2022/03/22 20:16:59;;;;;;;26.98;9.98;;;5.10;99.90;;;;;;5036383;28;20043;-79
2022/03/22 20:19:26;;;;;;;32.53;10.95;;;5.10;99.90;;;;;;5036655;28;20061;-79
2022/03/22 20:21:53;;;;;;;26.40;10.32;;;5.00;99.90;;;;;;5036717;28;20021;-79
2022/03/22 20:24:22;;;;;;;30.67;10.88;;;5.00;99.90;;;;;;5018979;28;20038;-79
2022/03/22 20:26:50;;;;;;;33.38;11.48;;;4.90;99.90;;;;;;5019676;28;20030;-79
2022/03/22 20:29:17;;;;;;;24.17;10.18;;;4.80;99.90;;;;;;5037514;28;20139;-79
2022/03/22 20:31:45;;;;;;;35.22;10.43;;;4.80;99.90;;;;;;5037163;28;20064;-79
2022/03/22 20:34:15;;;;;;;29.15;10.80;;;4.70;99.90;;;;;;5019478;28;20079;-79
2022/03/22 20:36:43;;;;;;;23.42;10.32;;;4.70;99.90;;;;;;5036588;28;20056;-79
2022/03/22 20:39:12;;;;;;;24.38;10.93;;;4.70;99.90;;;;;;5036225;28;20068;-79
2022/03/22 20:41:40;;;;;;;25.70;9.88;;;4.60;99.90;;;;;;5036471;28;20075;-79
2022/03/22 20:44:07;;;;;;;51.22;11.25;;;4.60;99.90;;;;;;5036149;28;20026;-79
2022/03/22 20:46:35;;;;;;;21.80;10.15;;;4.60;99.90;;;;;;5036586;28;20075;-75
2022/03/22 20:49:04;;;;;;;23.55;8.82;;;4.50;99.90;;;;;;5036303;28;20017;-79
2022/03/22 20:51:32;;;;;;;22.92;11.23;;;4.50;99.90;;;;;;5036067;28;20021;-79
2022/03/22 20:53:59;;;;;;;31.55;10.88;;;4.50;99.90;;;;;;5036095;28;20028;-79
2022/03/22 20:59:13;;;;;;;25.00;10.68;;;4.40;99.90;;;;;;5036542;28;20501;-80
2022/03/22 21:01:40;;;;;;;25.98;10.07;;;4.30;99.90;;;;;;5036278;28;20468;-80
2022/03/22 21:04:08;;;;;;;27.15;10.30;;;4.30;99.90;;;;;;5036029;28;20104;-80
2022/03/22 21:06:37;;;;;;;22.98;10.10;;;4.20;99.90;;;;;;5036137;28;20051;-80
2022/03/22 21:09:06;;;;;;;23.88;9.55;;;4.00;99.90;;;;;;5019311;28;20018;-79
2022/03/22 21:11:33;;;;;;;22.80;9.73;;;3.90;99.90;;;;;;5037148;28;20029;-79
2022/03/22 21:14:02;;;;;;;28.80;11.30;;;3.80;99.90;;;;;;5019285;28;20321;-79
2022/03/22 21:16:38;;;;;;;39.30;12.63;;;3.80;99.90;;;;;;5035883;28;20033;-79
2022/03/22 21:19:17;;;;;;;30.35;11.98;;;3.70;99.90;;;;;;5035936;28;20026;-79
2022/03/22 21:21:44;;;;;;;46.47;20.85;;;3.60;99.90;;;;;;5018157;28;20361;-80
2022/03/22 21:24:11;;;;;;;33.83;12.73;;;3.60;99.90;;;;;;5021432;28;20036;-79
2022/03/22 21:26:39;;;;;;;25.65;11.02;;;3.50;99.90;;;;;;5021697;28;20022;-80
2022/03/22 21:29:07;;;;;;;23.20;11.07;;;3.50;99.90;;;;;;5021848;28;20065;-79
2022/03/22 21:31:34;;;;;;;27.08;11.57;;;3.50;99.90;;;;;;5021399;28;20076;-79
2022/03/22 21:34:02;;;;;;;20.60;10.15;;;3.40;99.90;;;;;;5039461;28;20040;-79
2022/03/22 21:36:34;;;;;;;22.05;9.98;;;3.30;99.90;;;;;;5021659;28;20025;-79
2022/03/22 21:39:02;;;;;;;53.50;18.42;;;3.20;99.90;;;;;;5039515;28;20053;-79
2022/03/22 21:41:30;;;;;;;40.80;14.63;;;3.20;99.90;;;;;;5021541;28;20475;-79
2022/03/22 21:43:57;;;;;;;45.63;19.83;;;3.20;99.90;;;;;;5039857;28;20065;-79
2022/03/22 21:46:24;;;;;;;24.92;11.52;;;3.20;99.90;;;;;;5021325;28;20026;-79
2022/03/22 21:48:52;;;;;;;32.08;11.23;;;3.20;99.90;;;;;;5021615;28;20024;-79
2022/03/22 21:51:20;;;;;;;20.50;10.13;;;3.20;99.90;;;;;;5039866;28;20017;-79
2022/03/22 21:53:49;;;;;;;20.27;10.13;;;3.20;99.90;;;;;;5022424;28;20026;-79
2022/03/22 21:56:16;;;;;;;24.83;10.10;;;3.20;99.90;;;;;;5022441;28;20120;-79
2022/03/22 21:58:44;;;;;;;23.83;11.00;;;3.10;99.90;;;;;;5022012;28;20400;-79